Time;durP1;ratioP1;P1;durP2;ratioP2;P2;SDS_P1;SDS_P2;PMS_P1;PMS_P2;Temp;Humidity;BMP_temperature;BMP_pressure;BME280_temperature;BME280_humidity;BME280_pressure;Samples;Min_cycle;Max_cycle;Signal;HPM_P1;HPM_P2
2021/07/30 00:02:11;;;;;;;6.33;5.73;;;17.80;99.90;;;;;;5014241;28;20226;-78
2021/07/30 00:04:37;;;;;;;6.60;6.00;;;17.80;99.90;;;;;;5031990;28;20301;-78
2021/07/30 00:07:03;;;;;;;7.33;6.07;;;17.90;99.90;;;;;;5014478;28;20546;-78
2021/07/30 00:09:29;;;;;;;6.23;5.60;;;17.90;99.90;;;;;;5030053;22;20233;-77
2021/07/30 00:11:54;;;;;;;6.40;5.80;;;17.80;99.90;;;;;;5012894;28;20250;-77
2021/07/30 00:14:20;;;;;;;6.07;5.57;;;17.80;99.90;;;;;;5013079;28;20225;-77
2021/07/30 00:16:46;;;;;;;8.37;6.40;;;17.80;99.90;;;;;;5012124;28;20238;-77
2021/07/30 00:19:11;;;;;;;7.80;6.70;;;17.80;99.90;;;;;;4982631;28;20310;-77
2021/07/30 00:21:37;;;;;;;6.47;5.87;;;17.80;99.90;;;;;;4988358;28;20286;-77
2021/07/30 00:24:03;;;;;;;6.30;5.70;;;17.80;99.90;;;;;;4994871;28;20302;-76
2021/07/30 00:26:29;;;;;;;6.67;6.13;;;17.80;99.90;;;;;;4971159;28;20190;-76
2021/07/30 00:28:55;;;;;;;6.63;5.93;;;17.80;99.90;;;;;;4993100;28;20234;-77
2021/07/30 00:31:21;;;;;;;8.10;5.63;;;17.70;99.90;;;;;;4995232;28;20651;-76
2021/07/30 00:33:46;;;;;;;6.03;5.53;;;17.70;99.90;;;;;;4993360;28;20180;-76
2021/07/30 00:36:12;;;;;;;6.03;5.53;;;17.60;99.90;;;;;;4995647;28;20187;-78
2021/07/30 00:38:38;;;;;;;7.90;6.13;;;17.60;99.90;;;;;;4991525;28;20279;-77
2021/07/30 00:41:04;;;;;;;6.73;6.03;;;17.60;99.90;;;;;;4995169;28;20579;-77
2021/07/30 00:43:29;;;;;;;6.30;5.80;;;17.70;99.90;;;;;;4994598;28;20179;-77
2021/07/30 00:45:59;;;;;;;7.17;5.73;;;17.60;99.90;;;;;;4976606;28;20613;-77
2021/07/30 00:48:26;;;;;;;6.10;5.60;;;17.60;99.90;;;;;;4994796;28;20289;-77
2021/07/30 00:50:52;;;;;;;6.07;5.60;;;17.50;99.90;;;;;;4978472;28;20313;-76
2021/07/30 00:53:18;;;;;;;6.10;5.57;;;17.50;99.90;;;;;;4981204;28;20694;-77
2021/07/30 00:55:47;;;;;;;7.03;6.07;;;17.50;99.90;;;;;;4980993;28;20222;-77
2021/07/30 00:58:14;;;;;;;7.00;5.73;;;17.40;99.90;;;;;;4981116;28;20179;-77
2021/07/30 01:00:41;;;;;;;6.70;6.07;;;17.30;99.90;;;;;;4998461;28;20199;-77
2021/07/30 01:03:08;;;;;;;7.50;6.43;;;17.30;99.90;;;;;;4998609;28;20171;-77
2021/07/30 01:05:34;;;;;;;6.70;6.20;;;17.40;99.90;;;;;;4980875;28;20214;-77
2021/07/30 01:08:01;;;;;;;6.83;5.73;;;17.40;99.90;;;;;;4981874;28;20214;-76
2021/07/30 01:10:27;;;;;;;6.87;6.37;;;17.40;99.90;;;;;;4998487;28;20202;-77
2021/07/30 01:12:55;;;;;;;6.53;5.77;;;17.30;99.90;;;;;;4980785;28;20609;-76
2021/07/30 01:15:21;;;;;;;6.63;6.13;;;17.30;99.90;;;;;;4998741;28;20234;-77
2021/07/30 01:17:47;;;;;;;8.20;6.53;;;17.20;99.90;;;;;;4998258;28;20528;-76
2021/07/30 01:20:15;;;;;;;6.23;5.73;;;17.20;99.90;;;;;;4998359;28;20210;-77
2021/07/30 01:22:54;;;;;;;7.83;6.00;;;17.20;99.90;;;;;;4980664;28;20183;-77
2021/07/30 01:25:21;;;;;;;5.97;5.57;;;17.20;99.90;;;;;;4998468;28;20175;-76
2021/07/30 01:27:47;;;;;;;5.90;5.40;;;17.20;99.90;;;;;;4998050;28;20188;-77
2021/07/30 01:30:14;;;;;;;7.10;6.50;;;17.20;99.90;;;;;;5000608;28;20357;-77
2021/07/30 01:32:40;;;;;;;6.03;5.53;;;17.30;99.90;;;;;;4997422;28;20184;-77
2021/07/30 01:35:06;;;;;;;6.40;5.80;;;17.30;99.90;;;;;;4998135;28;20545;-77
2021/07/30 01:37:32;;;;;;;6.50;5.90;;;17.40;99.90;;;;;;4998095;28;20711;-76
2021/07/30 01:39:58;;;;;;;7.47;6.00;;;17.30;99.90;;;;;;4997953;28;20202;-77
2021/07/30 01:42:24;;;;;;;6.80;6.20;;;17.30;99.90;;;;;;4997625;28;20179;-78
2021/07/30 01:44:52;;;;;;;5.80;5.40;;;17.20;99.90;;;;;;4996980;28;20179;-77
2021/07/30 01:47:21;;;;;;;6.07;5.47;;;17.20;99.90;;;;;;4996968;28;20204;-77
2021/07/30 01:49:51;;;;;;;7.57;5.37;;;17.20;99.90;;;;;;4979278;28;20706;-76
2021/07/30 01:52:17;;;;;;;5.93;5.40;;;17.20;99.90;;;;;;4996924;28;20180;-77
2021/07/30 01:54:44;;;;;;;5.83;5.33;;;17.10;99.90;;;;;;4996871;28;20191;-77
2021/07/30 01:57:10;;;;;;;7.87;5.40;;;17.10;99.90;;;;;;4979980;28;20290;-77
2021/07/30 01:59:36;;;;;;;5.90;5.40;;;17.10;99.90;;;;;;4997011;28;20690;-76
2021/07/30 02:02:02;;;;;;;6.23;5.17;;;17.10;99.90;;;;;;4995456;28;20224;-78
2021/07/30 02:04:28;;;;;;;6.10;5.60;;;17.10;99.90;;;;;;4996680;28;20265;-77
2021/07/30 02:06:53;;;;;;;5.47;4.97;;;17.00;99.90;;;;;;4996263;28;20557;-77
2021/07/30 02:09:19;;;;;;;6.83;5.83;;;17.00;99.90;;;;;;4985953;28;20286;-76
2021/07/30 02:11:53;;;;;;;6.00;5.47;;;17.00;99.90;;;;;;4995183;28;20187;-78
2021/07/30 02:14:20;;;;;;;5.97;5.43;;;16.80;99.90;;;;;;4996572;28;20178;-77
2021/07/30 02:16:52;;;;;;;6.50;5.93;;;16.70;99.90;;;;;;4996164;28;20209;-77
2021/07/30 02:19:19;;;;;;;6.30;5.80;;;16.80;99.90;;;;;;4994768;28;20576;-77
2021/07/30 02:21:46;;;;;;;6.10;5.60;;;16.80;99.90;;;;;;4989726;28;20204;-75
2021/07/30 02:24:12;;;;;;;6.30;5.80;;;16.80;99.90;;;;;;4990936;28;20197;-78
2021/07/30 02:26:38;;;;;;;7.10;5.43;;;16.80;99.90;;;;;;5006315;28;20184;-78
2021/07/30 02:29:04;;;;;;;6.23;5.73;;;16.90;99.90;;;;;;4992862;28;20229;-77
2021/07/30 02:31:30;;;;;;;7.63;5.70;;;16.90;99.90;;;;;;4995199;28;20186;-76
2021/07/30 02:33:56;;;;;;;5.90;5.17;;;16.90;99.90;;;;;;4991966;28;20179;-78
2021/07/30 02:36:22;;;;;;;11.13;5.80;;;16.90;99.90;;;;;;4992903;28;20181;-77
2021/07/30 02:38:48;;;;;;;7.33;5.63;;;16.90;99.90;;;;;;4994461;28;20207;-78
2021/07/30 02:41:13;;;;;;;6.27;5.67;;;16.90;99.90;;;;;;4994937;28;20622;-77
2021/07/30 02:43:40;;;;;;;6.60;6.00;;;16.90;99.90;;;;;;4984207;28;20183;-77
2021/07/30 02:46:06;;;;;;;6.23;5.70;;;16.90;99.90;;;;;;4994896;28;20194;-78
2021/07/30 02:48:31;;;;;;;7.03;6.33;;;17.00;99.90;;;;;;4996008;28;20195;-76
2021/07/30 02:50:57;;;;;;;6.87;5.93;;;17.00;99.90;;;;;;4996259;28;20197;-77
2021/07/30 02:53:23;;;;;;;7.37;5.50;;;17.00;99.90;;;;;;4995460;28;20530;-79
2021/07/30 02:55:48;;;;;;;7.10;6.57;;;17.10;99.90;;;;;;4995494;28;20210;-77
2021/07/30 02:58:14;;;;;;;8.63;6.67;;;17.10;99.90;;;;;;5006940;28;20183;-77
2021/07/30 03:00:41;;;;;;;5.67;5.27;;;17.10;99.90;;;;;;4996155;28;20199;-76
2021/07/30 03:03:06;;;;;;;9.83;5.83;;;17.10;99.90;;;;;;4996101;28;20168;-77
2021/07/30 03:05:32;;;;;;;9.03;5.63;;;17.10;99.90;;;;;;4995750;28;20193;-78
2021/07/30 03:07:58;;;;;;;6.23;5.70;;;17.10;99.90;;;;;;4996191;28;20176;-76
2021/07/30 03:10:23;;;;;;;6.40;5.90;;;17.10;99.90;;;;;;4996007;28;20239;-77
2021/07/30 03:12:49;;;;;;;8.37;5.60;;;17.10;99.90;;;;;;4996115;28;20210;-77
2021/07/30 03:15:15;;;;;;;6.43;5.93;;;17.10;99.90;;;;;;4995629;28;20174;-77
2021/07/30 03:17:40;;;;;;;6.10;5.50;;;17.00;99.90;;;;;;4995885;28;20242;-76
2021/07/30 03:20:07;;;;;;;5.13;4.73;;;17.00;99.90;;;;;;4978461;28;20234;-77
2021/07/30 03:22:34;;;;;;;5.47;5.07;;;17.00;99.90;;;;;;4995842;28;20647;-76
2021/07/30 03:25:00;;;;;;;6.30;5.70;;;17.00;99.90;;;;;;4978163;28;20174;-76
2021/07/30 03:27:26;;;;;;;7.63;5.80;;;16.90;99.90;;;;;;4995882;28;20171;-77
2021/07/30 03:29:52;;;;;;;5.83;5.40;;;16.90;99.90;;;;;;4995196;28;20205;-77
2021/07/30 03:32:18;;;;;;;6.70;6.10;;;16.80;99.90;;;;;;4977972;28;20526;-77
2021/07/30 03:34:45;;;;;;;6.87;6.27;;;16.80;99.90;;;;;;4995787;28;20257;-76
2021/07/30 03:37:15;;;;;;;5.80;5.30;;;16.80;99.90;;;;;;4997924;28;20178;-77
2021/07/30 03:39:41;;;;;;;6.47;5.60;;;16.80;99.90;;;;;;4995083;28;20314;-77
2021/07/30 03:42:07;;;;;;;6.17;5.57;;;16.80;99.90;;;;;;4977938;28;20281;-76
2021/07/30 03:44:33;;;;;;;7.27;5.37;;;16.80;99.90;;;;;;4994828;28;20187;-77
2021/07/30 03:46:59;;;;;;;7.13;5.77;;;16.70;99.90;;;;;;4994870;28;20175;-77
2021/07/30 03:49:25;;;;;;;6.17;5.57;;;16.70;99.90;;;;;;4994595;28;20316;-76
2021/07/30 03:51:50;;;;;;;7.10;6.37;;;16.70;99.90;;;;;;4977031;28;20175;-77
2021/07/30 03:54:19;;;;;;;6.87;6.07;;;16.60;99.90;;;;;;4995414;28;20175;-77
2021/07/30 03:56:45;;;;;;;7.10;5.80;;;16.60;99.90;;;;;;4995874;28;20180;-78
2021/07/30 03:59:11;;;;;;;6.50;5.83;;;16.60;99.90;;;;;;4995440;28;20318;-77
2021/07/30 04:01:37;;;;;;;7.03;5.77;;;16.50;99.90;;;;;;4993209;28;20714;-77
2021/07/30 04:04:03;;;;;;;6.43;5.83;;;16.50;99.90;;;;;;4994338;28;20552;-78
2021/07/30 04:06:29;;;;;;;6.30;5.80;;;16.40;99.90;;;;;;4969178;28;20212;-76
2021/07/30 04:08:55;;;;;;;6.30;5.80;;;16.50;99.90;;;;;;4990498;28;20249;-76
2021/07/30 04:11:21;;;;;;;6.13;5.63;;;16.50;99.90;;;;;;4992595;28;20182;-76
2021/07/30 04:13:46;;;;;;;6.80;6.10;;;16.50;99.90;;;;;;4994774;28;20183;-77
2021/07/30 04:16:12;;;;;;;7.17;5.50;;;16.50;99.90;;;;;;4993313;28;20230;-76
2021/07/30 04:18:39;;;;;;;6.10;5.60;;;16.50;99.90;;;;;;4994304;28;20671;-77
2021/07/30 04:21:06;;;;;;;6.90;6.17;;;16.40;99.90;;;;;;4994310;28;20552;-77
2021/07/30 04:23:32;;;;;;;6.17;5.57;;;16.40;99.90;;;;;;4994220;28;20215;-77
2021/07/30 04:25:58;;;;;;;9.07;6.20;;;16.40;99.90;;;;;;4993548;28;20175;-76
2021/07/30 04:28:24;;;;;;;7.13;6.57;;;16.30;99.90;;;;;;4994178;28;20288;-77
2021/07/30 04:30:49;;;;;;;6.40;5.90;;;16.40;99.90;;;;;;4992449;28;20190;-76
2021/07/30 04:33:15;;;;;;;7.53;5.93;;;16.40;99.90;;;;;;4993517;28;20194;-77
2021/07/30 04:35:41;;;;;;;7.03;6.33;;;16.40;99.90;;;;;;4992766;28;20189;-78
2021/07/30 04:38:06;;;;;;;6.43;5.87;;;16.50;99.90;;;;;;4991468;28;20179;-77
2021/07/30 04:40:32;;;;;;;7.03;5.37;;;16.50;99.90;;;;;;4986364;28;20199;-79
2021/07/30 04:42:58;;;;;;;7.37;5.97;;;16.50;99.90;;;;;;4981232;28;20180;-76
2021/07/30 04:45:24;;;;;;;7.37;6.20;;;16.50;99.90;;;;;;4988218;28;20233;-77
2021/07/30 04:47:50;;;;;;;5.87;5.37;;;16.60;99.90;;;;;;4991753;28;20234;-77
2021/07/30 04:50:16;;;;;;;6.50;5.90;;;16.60;99.90;;;;;;4992207;28;20269;-77
2021/07/30 04:52:42;;;;;;;7.60;5.73;;;16.60;99.90;;;;;;4994162;28;20199;-77
2021/07/30 04:55:08;;;;;;;6.63;6.03;;;16.70;99.90;;;;;;4992499;28;20180;-77
2021/07/30 04:57:33;;;;;;;6.57;5.73;;;16.70;99.90;;;;;;4991163;28;20674;-78
2021/07/30 04:59:59;;;;;;;6.23;5.63;;;16.80;99.90;;;;;;4983266;28;20330;-78
2021/07/30 05:02:25;;;;;;;6.03;5.53;;;16.80;99.90;;;;;;4989195;28;20691;-78
2021/07/30 05:04:54;;;;;;;6.40;5.80;;;16.80;99.90;;;;;;4991834;28;20647;-77
2021/07/30 05:07:23;;;;;;;6.80;6.10;;;16.90;99.90;;;;;;4991977;28;20645;-76
2021/07/30 05:09:49;;;;;;;8.47;5.63;;;16.90;99.90;;;;;;4992045;28;20715;-77
2021/07/30 05:12:15;;;;;;;5.97;5.43;;;16.90;99.90;;;;;;4974732;28;20187;-78
2021/07/30 05:14:40;;;;;;;6.57;5.97;;;16.90;99.90;;;;;;4992295;28;20193;-77
2021/07/30 05:17:06;;;;;;;8.13;5.53;;;16.90;99.90;;;;;;4992504;28;20185;-77
2021/07/30 05:19:32;;;;;;;6.10;5.50;;;16.90;99.90;;;;;;4991438;28;20203;-78
2021/07/30 05:21:58;;;;;;;6.10;5.30;;;16.90;99.90;;;;;;4991382;28;20244;-77
2021/07/30 05:24:23;;;;;;;7.63;5.73;;;16.90;99.90;;;;;;4992801;28;20205;-76
2021/07/30 05:26:49;;;;;;;6.40;5.90;;;16.80;99.90;;;;;;4983627;28;20183;-76
2021/07/30 05:29:15;;;;;;;6.07;5.63;;;16.90;99.90;;;;;;4982050;28;20203;-78
2021/07/30 05:31:40;;;;;;;6.03;5.63;;;16.90;99.90;;;;;;4993972;28;20190;-77
2021/07/30 05:34:06;;;;;;;6.43;5.83;;;16.90;99.90;;;;;;4991446;28;20503;-76
2021/07/30 05:36:31;;;;;;;8.77;5.90;;;16.90;99.90;;;;;;4986374;28;20558;-78
2021/07/30 05:38:57;;;;;;;5.83;5.23;;;16.90;99.90;;;;;;4989276;28;20207;-78
2021/07/30 05:41:23;;;;;;;6.40;5.80;;;16.80;99.90;;;;;;4995518;28;20198;-77
2021/07/30 05:43:49;;;;;;;6.83;6.07;;;16.90;99.90;;;;;;4978376;28;20206;-77
2021/07/30 05:46:18;;;;;;;6.17;5.57;;;17.00;99.90;;;;;;4996096;28;20197;-77
2021/07/30 05:48:45;;;;;;;7.03;5.63;;;17.20;99.90;;;;;;4992067;28;20199;-78
2021/07/30 05:51:11;;;;;;;6.50;5.90;;;17.30;99.90;;;;;;4997783;28;20189;-77
2021/07/30 05:53:40;;;;;;;7.17;5.80;;;17.40;99.90;;;;;;4979378;28;20179;-77
2021/07/30 05:56:06;;;;;;;6.03;5.53;;;17.50;99.90;;;;;;4978301;28;20183;-79
2021/07/30 05:58:33;;;;;;;6.13;5.60;;;17.60;99.90;;;;;;4977902;28;20286;-78
2021/07/30 06:00:58;;;;;;;7.40;5.97;;;17.80;99.90;;;;;;4977856;28;20202;-79
2021/07/30 06:03:24;;;;;;;5.47;4.93;;;17.80;99.90;;;;;;4995804;28;20183;-78
2021/07/30 06:05:50;;;;;;;6.70;5.90;;;17.80;99.90;;;;;;4978399;28;20172;-77
2021/07/30 06:08:15;;;;;;;7.33;6.63;;;17.80;99.90;;;;;;4995852;28;20184;-77
2021/07/30 06:10:41;;;;;;;7.17;6.47;;;17.80;99.90;;;;;;4978451;28;20544;-79
2021/07/30 06:13:07;;;;;;;7.57;6.93;;;17.90;99.90;;;;;;4995901;28;20180;-78
2021/07/30 06:15:33;;;;;;;7.20;6.50;;;17.90;99.90;;;;;;4996010;28;20184;-79
2021/07/30 06:18:02;;;;;;;8.10;6.67;;;17.80;99.90;;;;;;4978396;28;20655;-78
2021/07/30 06:20:28;;;;;;;7.53;6.73;;;18.00;99.90;;;;;;4997068;28;20255;-78
2021/07/30 06:22:54;;;;;;;8.70;6.73;;;18.10;99.90;;;;;;4995620;28;20180;-78
2021/07/30 06:25:20;;;;;;;7.67;6.97;;;18.20;99.90;;;;;;4998745;28;20229;-78
2021/07/30 06:27:45;;;;;;;8.13;7.30;;;18.30;99.90;;;;;;4992232;28;20171;-78
2021/07/30 06:30:12;;;;;;;7.77;7.07;;;18.40;99.90;;;;;;4995174;28;20687;-77
2021/07/30 06:32:38;;;;;;;7.60;6.73;;;18.40;99.90;;;;;;4987684;28;20279;-79
2021/07/30 06:35:05;;;;;;;7.90;7.23;;;18.30;99.90;;;;;;4991125;28;20180;-77
2021/07/30 06:37:35;;;;;;;7.90;7.20;;;18.40;99.90;;;;;;4995396;28;20202;-79
2021/07/30 06:40:02;;;;;;;9.27;7.90;;;18.50;99.90;;;;;;5009240;28;20198;-77
2021/07/30 06:42:27;;;;;;;9.37;7.57;;;18.40;99.90;;;;;;4994084;28;20195;-79
2021/07/30 06:44:53;;;;;;;7.83;6.93;;;18.50;99.90;;;;;;4994755;28;20183;-77
2021/07/30 06:47:21;;;;;;;8.57;7.33;;;18.60;99.90;;;;;;4994870;28;20218;-79
2021/07/30 06:49:47;;;;;;;7.97;6.93;;;18.60;99.90;;;;;;4993777;28;20684;-78
2021/07/30 06:52:12;;;;;;;8.23;7.03;;;18.70;99.90;;;;;;4991445;28;20191;-76
2021/07/30 06:54:38;;;;;;;9.00;6.97;;;18.80;99.90;;;;;;4995766;28;20560;-77
2021/07/30 06:57:04;;;;;;;8.13;7.43;;;18.90;99.90;;;;;;4995898;28;20707;-78
2021/07/30 06:59:30;;;;;;;8.87;7.93;;;19.10;99.90;;;;;;4995573;28;20207;-77
2021/07/30 07:01:56;;;;;;;8.17;7.33;;;19.20;99.90;;;;;;4991276;28;20210;-79
2021/07/30 07:04:21;;;;;;;7.87;7.17;;;19.30;99.90;;;;;;4985547;28;20175;-77
2021/07/30 07:06:47;;;;;;;8.27;7.57;;;19.30;99.90;;;;;;4994727;28;20636;-78
2021/07/30 07:09:17;;;;;;;7.37;6.67;;;19.30;99.90;;;;;;4994341;28;20220;-77
2021/07/30 07:11:42;;;;;;;8.67;7.10;;;19.20;99.90;;;;;;4994966;28;20231;-77
2021/07/30 07:14:08;;;;;;;7.00;6.30;;;19.30;99.90;;;;;;4994752;28;20175;-77
2021/07/30 07:16:34;;;;;;;6.27;5.67;;;19.30;99.90;;;;;;4998493;28;20183;-78
2021/07/30 07:18:59;;;;;;;7.87;6.33;;;19.40;99.90;;;;;;4981851;28;20199;-79
2021/07/30 07:21:25;;;;;;;8.37;7.53;;;19.40;99.90;;;;;;4999455;28;20792;-78
2021/07/30 07:23:51;;;;;;;8.40;7.53;;;19.30;99.90;;;;;;4999018;28;20210;-79
2021/07/30 07:26:18;;;;;;;10.77;8.77;;;19.40;99.90;;;;;;4998831;28;20179;-79
2021/07/30 07:28:45;;;;;;;12.07;9.20;;;19.40;99.90;;;;;;4998808;28;20250;-79
2021/07/30 07:31:11;;;;;;;15.93;11.80;;;19.40;99.90;;;;;;4982656;28;20664;-78
2021/07/30 07:33:36;;;;;;;14.73;11.20;;;19.40;99.90;;;;;;4998604;28;20179;-78
2021/07/30 07:36:02;;;;;;;14.87;10.17;;;19.60;99.90;;;;;;4996537;28;20182;-77
2021/07/30 07:38:28;;;;;;;9.90;8.67;;;19.80;99.90;;;;;;4996966;28;20568;-78
2021/07/30 07:40:54;;;;;;;7.80;7.10;;;19.90;99.90;;;;;;4995387;28;20192;-78
2021/07/30 07:43:20;;;;;;;10.77;8.07;;;20.00;99.90;;;;;;4974547;28;20214;-72
2021/07/30 07:45:45;;;;;;;9.13;8.23;;;20.10;99.90;;;;;;4999186;28;20249;-72
2021/07/30 07:48:11;;;;;;;9.10;7.83;;;20.20;99.90;;;;;;4994079;28;20180;-73
2021/07/30 07:50:37;;;;;;;7.90;7.20;;;20.30;99.90;;;;;;4993781;28;20188;-72
2021/07/30 07:53:11;;;;;;;8.13;7.33;;;20.40;99.90;;;;;;4993921;28;20641;-71
2021/07/30 07:55:37;;;;;;;8.07;6.90;;;20.40;99.90;;;;;;4994222;28;20275;-72
2021/07/30 07:58:03;;;;;;;7.87;6.73;;;20.50;99.90;;;;;;4993837;28;20171;-73
2021/07/30 08:00:28;;;;;;;10.80;7.20;;;20.50;99.90;;;;;;4993828;28;20230;-71
2021/07/30 08:02:54;;;;;;;10.87;6.90;;;20.60;99.90;;;;;;4994212;28;20184;-72
2021/07/30 08:05:19;;;;;;;7.97;7.13;;;20.60;99.90;;;;;;4993925;28;20668;-72
2021/07/30 08:07:45;;;;;;;7.80;6.57;;;20.50;99.90;;;;;;4993858;28;20183;-72
2021/07/30 08:10:11;;;;;;;7.30;5.83;;;20.60;99.90;;;;;;5007427;28;20200;-71
2021/07/30 08:12:36;;;;;;;6.10;5.50;;;20.60;99.90;;;;;;4993644;28;20180;-72
2021/07/30 08:15:03;;;;;;;8.10;5.57;;;20.70;99.90;;;;;;4975934;28;20286;-72
2021/07/30 08:17:29;;;;;;;5.53;4.97;;;20.90;99.90;;;;;;4990951;28;20192;-72
2021/07/30 08:19:55;;;;;;;6.67;5.87;;;21.00;99.90;;;;;;4998550;28;20203;-72
2021/07/30 08:22:21;;;;;;;13.90;9.37;;;21.00;99.90;;;;;;4998377;28;20249;-72
2021/07/30 08:24:47;;;;;;;6.97;6.20;;;21.00;99.90;;;;;;5005870;28;20592;-72
2021/07/30 08:27:14;;;;;;;6.77;5.70;;;21.20;99.90;;;;;;4979344;28;20195;-72
2021/07/30 08:29:42;;;;;;;6.47;5.43;;;21.30;99.90;;;;;;4994894;28;20192;-72
2021/07/30 08:32:08;;;;;;;8.60;6.37;;;21.40;99.90;;;;;;4996951;28;20179;-72
2021/07/30 08:34:37;;;;;;;6.90;6.07;;;21.50;99.90;;;;;;4992142;28;20208;-72
2021/07/30 08:37:02;;;;;;;7.37;6.13;;;21.50;99.90;;;;;;4992628;28;20640;-72
2021/07/30 08:39:28;;;;;;;8.70;7.73;;;21.60;99.90;;;;;;4981566;28;20215;-72
2021/07/30 08:41:58;;;;;;;10.40;9.40;;;21.70;99.90;;;;;;4984388;28;20204;-72
2021/07/30 08:44:24;;;;;;;10.23;8.60;;;22.00;99.90;;;;;;4989689;28;20199;-72
2021/07/30 08:46:51;;;;;;;7.30;6.60;;;22.00;99.90;;;;;;4991989;28;20180;-73
2021/07/30 08:49:17;;;;;;;9.17;7.00;;;22.10;99.90;;;;;;4993214;28;20266;-72
2021/07/30 08:51:45;;;;;;;7.17;6.47;;;22.20;99.90;;;;;;4970688;28;20180;-73
2021/07/30 08:54:11;;;;;;;16.47;11.70;;;22.30;99.90;;;;;;4991120;28;20238;-73
2021/07/30 08:56:37;;;;;;;11.80;9.87;;;22.30;99.90;;;;;;5007040;28;20171;-72
2021/07/30 08:59:04;;;;;;;15.53;11.47;;;22.30;99.90;;;;;;4993315;28;20613;-72
2021/07/30 09:01:30;;;;;;;8.67;7.57;;;22.40;99.90;;;;;;4990134;28;20203;-73
2021/07/30 09:03:56;;;;;;;8.53;7.20;;;22.50;99.90;;;;;;4975257;28;20187;-73
2021/07/30 09:06:23;;;;;;;9.30;7.20;;;22.70;99.90;;;;;;4988812;28;20180;-72
2021/07/30 09:09:01;;;;;;;9.13;7.30;;;22.90;99.90;;;;;;4977281;28;20219;-72
2021/07/30 09:11:30;;;;;;;7.70;6.90;;;22.90;99.90;;;;;;4994377;28;20523;-73
2021/07/30 09:13:57;;;;;;;8.63;7.70;;;23.00;99.90;;;;;;4990469;28;20196;-73
2021/07/30 09:16:23;;;;;;;7.40;6.70;;;23.00;99.90;;;;;;5002146;28;20184;-73
2021/07/30 09:18:51;;;;;;;8.43;7.57;;;23.00;99.90;;;;;;5000010;28;20207;-73
2021/07/30 09:21:21;;;;;;;7.37;6.50;;;23.10;99.90;;;;;;5001200;28;20238;-73
2021/07/30 09:23:54;;;;;;;10.07;7.73;;;23.40;99.90;;;;;;4999903;28;20668;-73
2021/07/30 09:26:39;;;;;;;6.73;5.80;;;23.50;99.90;;;;;;4995802;28;20176;-73
2021/07/30 09:29:17;;;;;;;5.90;5.37;;;23.60;99.90;;;;;;4982610;28;20195;-72
2021/07/30 09:31:51;;;;;;;6.87;5.60;;;23.60;99.90;;;;;;4995577;28;20203;-73
2021/07/30 09:34:24;;;;;;;6.40;5.80;;;23.60;99.90;;;;;;4995804;28;20179;-73
2021/07/30 09:36:58;;;;;;;5.87;5.37;;;23.60;99.90;;;;;;4995066;28;20203;-73
2021/07/30 09:39:45;;;;;;;5.57;5.07;;;23.70;99.90;;;;;;4996558;28;20202;-73
2021/07/30 09:42:12;;;;;;;6.80;5.60;;;23.80;99.90;;;;;;4999887;28;20211;-73
2021/07/30 09:44:44;;;;;;;5.97;5.37;;;24.10;99.90;;;;;;4995186;28;20180;-73
2021/07/30 09:47:19;;;;;;;5.83;5.33;;;24.20;99.90;;;;;;4995249;28;20186;-73
2021/07/30 09:49:52;;;;;;;6.93;6.23;;;24.40;99.90;;;;;;4996539;28;20567;-72
2021/07/30 09:52:25;;;;;;;5.73;5.33;;;24.40;99.90;;;;;;5007793;28;20186;-73
2021/07/30 09:54:53;;;;;;;6.10;5.03;;;24.40;99.90;;;;;;4997144;28;20695;-73
2021/07/30 09:57:21;;;;;;;5.97;5.47;;;24.40;99.90;;;;;;4996521;28;20248;-73
2021/07/30 09:59:47;;;;;;;6.43;5.20;;;24.40;99.90;;;;;;4986234;28;20223;-72
2021/07/30 10:02:20;;;;;;;9.00;5.50;;;24.30;99.90;;;;;;4995812;28;20609;-73
2021/07/30 10:04:51;;;;;;;6.30;5.10;;;24.50;99.90;;;;;;5009858;28;20847;-72
2021/07/30 10:07:25;;;;;;;5.97;5.53;;;24.60;99.90;;;;;;4996230;28;20664;-72
2021/07/30 10:10:08;;;;;;;5.23;4.77;;;24.50;99.90;;;;;;4995854;28;20219;-73
2021/07/30 10:12:37;;;;;;;5.43;5.03;;;24.50;99.90;;;;;;4996881;28;20188;-84
2021/07/30 10:15:05;;;;;;;5.50;5.00;;;24.70;99.90;;;;;;5001232;28;20187;-84
2021/07/30 10:17:35;;;;;;;7.40;5.50;;;24.90;99.90;;;;;;5001539;28;20180;-85
2021/07/30 10:20:07;;;;;;;5.67;5.17;;;24.90;99.90;;;;;;5001279;28;20286;-85
2021/07/30 10:22:38;;;;;;;5.77;5.27;;;25.00;99.90;;;;;;5002093;28;20199;-85
2021/07/30 10:25:05;;;;;;;5.30;4.80;;;25.10;99.90;;;;;;5000746;28;20195;-84
2021/07/30 10:27:31;;;;;;;5.30;4.90;;;25.00;99.90;;;;;;4983754;28;20208;-84
2021/07/30 10:30:04;;;;;;;5.87;5.10;;;25.10;99.90;;;;;;5000721;28;20204;-84
2021/07/30 10:32:50;;;;;;;6.33;5.53;;;25.00;99.90;;;;;;5000977;28;20188;-85
2021/07/30 10:35:19;;;;;;;5.17;4.67;;;25.10;99.90;;;;;;5000720;28;20255;-84
2021/07/30 10:37:45;;;;;;;5.57;4.97;;;25.20;99.90;;;;;;4999684;28;20191;-84
2021/07/30 10:40:24;;;;;;;5.67;5.27;;;25.30;99.90;;;;;;5001251;28;20270;-85
2021/07/30 10:42:59;;;;;;;6.07;5.03;;;25.30;99.90;;;;;;5001446;28;20179;-84
2021/07/30 10:45:24;;;;;;;5.30;4.90;;;25.40;99.90;;;;;;5003839;28;20182;-85
2021/07/30 10:48:15;;;;;;;5.87;5.37;;;25.30;99.90;;;;;;4998826;28;20739;-84
2021/07/30 10:50:48;;;;;;;6.33;5.30;;;25.30;99.90;;;;;;5000131;28;20234;-85
2021/07/30 10:53:38;;;;;;;6.20;5.53;;;25.50;99.90;;;;;;4982750;28;20222;-85
2021/07/30 10:56:28;;;;;;;5.73;5.07;;;25.60;99.90;;;;;;4998594;28;20610;-84
2021/07/30 10:58:55;;;;;;;5.83;5.33;;;25.50;99.90;;;;;;4980589;28;20215;-83
2021/07/30 11:01:28;;;;;;;5.50;5.00;;;25.70;99.90;;;;;;4997355;28;20195;-84
2021/07/30 11:03:54;;;;;;;6.10;5.60;;;25.80;99.90;;;;;;4979522;28;20176;-83
2021/07/30 11:06:28;;;;;;;5.97;5.47;;;25.80;99.90;;;;;;4997131;28;20179;-83
2021/07/30 11:09:17;;;;;;;6.00;5.50;;;25.90;99.90;;;;;;4997303;28;20215;-82
2021/07/30 11:12:05;;;;;;;7.53;6.83;;;25.90;99.90;;;;;;4997129;28;20259;-82
2021/07/30 11:14:41;;;;;;;6.20;5.60;;;26.00;99.90;;;;;;4997228;28;20191;-84
2021/07/30 11:17:08;;;;;;;6.53;5.00;;;26.20;99.90;;;;;;4997554;28;20168;-84
2021/07/30 11:19:36;;;;;;;5.60;5.20;;;26.30;99.90;;;;;;4997456;28;20783;-83
2021/07/30 11:22:12;;;;;;;6.40;5.30;;;26.40;99.90;;;;;;4979683;28;20207;-83
2021/07/30 11:24:45;;;;;;;5.80;5.20;;;26.40;99.90;;;;;;4997394;28;20663;-83
2021/07/30 11:27:14;;;;;;;5.83;5.33;;;26.70;99.90;;;;;;4979400;28;20231;-84
2021/07/30 11:29:45;;;;;;;6.33;5.50;;;26.70;99.90;;;;;;4988959;28;20254;-83
2021/07/30 11:32:16;;;;;;;5.70;5.20;;;26.90;99.90;;;;;;4996739;28;20191;-83
2021/07/30 11:34:46;;;;;;;7.40;5.67;;;26.90;99.90;;;;;;5000819;28;20802;-83
2021/07/30 11:37:13;;;;;;;11.70;7.77;;;26.90;99.90;;;;;;4997639;28;20199;-84
2021/07/30 11:39:45;;;;;;;5.33;4.87;;;27.20;99.90;;;;;;4996524;28;20215;-84
2021/07/30 11:42:30;;;;;;;5.57;5.07;;;27.30;99.90;;;;;;4978424;28;20199;-83
2021/07/30 11:45:04;;;;;;;5.77;5.37;;;27.10;99.90;;;;;;4997034;28;20203;-83
2021/07/30 11:47:31;;;;;;;5.67;5.17;;;27.30;99.90;;;;;;4996495;28;20172;-84
2021/07/30 11:50:07;;;;;;;5.97;5.57;;;27.30;99.90;;;;;;4996512;28;20195;-84
2021/07/30 11:52:37;;;;;;;5.93;5.50;;;27.30;99.90;;;;;;4979439;28;20539;-83
2021/07/30 11:55:16;;;;;;;6.00;5.60;;;27.40;99.90;;;;;;4996111;28;20195;-84
2021/07/30 11:57:43;;;;;;;6.73;5.60;;;27.30;99.90;;;;;;4996670;28;20254;-84
2021/07/30 12:00:09;;;;;;;6.93;5.47;;;27.40;99.90;;;;;;4978862;28;20787;-83
2021/07/30 12:02:34;;;;;;;6.13;5.53;;;27.50;99.90;;;;;;4996718;28;20254;-84
2021/07/30 12:05:00;;;;;;;6.07;5.67;;;27.60;99.90;;;;;;4996183;28;20175;-83
2021/07/30 12:07:31;;;;;;;6.17;5.67;;;27.60;99.90;;;;;;4996526;28;20234;-83
2021/07/30 12:09:59;;;;;;;5.87;5.47;;;27.60;99.90;;;;;;4995851;28;20204;-82
2021/07/30 12:12:28;;;;;;;5.83;5.33;;;27.80;99.90;;;;;;4996485;28;20176;-85
2021/07/30 12:14:55;;;;;;;6.43;5.80;;;27.70;99.90;;;;;;4996407;28;20184;-84
2021/07/30 12:17:22;;;;;;;6.63;5.63;;;27.80;99.90;;;;;;5003744;28;20703;-85
2021/07/30 12:20:02;;;;;;;8.87;7.67;;;28.00;99.90;;;;;;5000078;28;20279;-85
2021/07/30 12:22:36;;;;;;;6.80;5.50;;;28.10;99.90;;;;;;5000518;28;20275;-85
2021/07/30 12:27:36;;;;;;;6.23;5.73;;;28.00;99.90;;;;;;5082225;23;20253;-80
2021/07/30 12:30:01;;;;;;;6.43;5.93;;;28.10;99.90;;;;;;5061583;28;20561;-80
2021/07/30 12:32:39;;;;;;;6.10;5.70;;;28.30;99.90;;;;;;5061722;28;20174;-80
2021/07/30 12:35:06;;;;;;;6.00;5.50;;;28.30;99.90;;;;;;5061817;28;20182;-80
2021/07/30 12:37:33;;;;;;;8.07;5.50;;;28.40;99.90;;;;;;5044897;28;20198;-80
2021/07/30 12:40:07;;;;;;;5.70;5.30;;;28.50;99.90;;;;;;5024393;28;20198;-80
2021/07/30 12:42:35;;;;;;;6.10;5.50;;;28.60;99.90;;;;;;5041888;28;20205;-80
2021/07/30 12:45:03;;;;;;;5.83;5.33;;;28.60;99.90;;;;;;5041579;28;20182;-80
2021/07/30 12:47:29;;;;;;;6.60;6.10;;;28.60;99.90;;;;;;5041065;28;20566;-80
2021/07/30 12:49:55;;;;;;;5.90;5.33;;;28.70;99.90;;;;;;5041419;28;20206;-80
2021/07/30 12:52:21;;;;;;;10.40;6.77;;;28.60;99.90;;;;;;5041678;28;20181;-80